createdAt,value
2019-05-14T00:00:21.723Z,1017.78
2019-05-14T00:01:22.169Z,1017.76
2019-05-14T00:02:21.789Z,1017.79
2019-05-14T00:03:21.932Z,1017.74
2019-05-14T00:04:22.129Z,1017.73
2019-05-14T00:05:22.289Z,1017.76
2019-05-14T00:06:21.927Z,1017.79
2019-05-14T00:07:22.572Z,1017.79
2019-05-14T00:08:22.710Z,1017.75
2019-05-14T00:09:21.962Z,1017.79
2019-05-14T00:10:22.131Z,1017.75
2019-05-14T00:11:22.323Z,1017.76
2019-05-14T00:12:22.534Z,1017.75
2019-05-14T00:13:22.698Z,1017.78
2019-05-14T00:14:35.686Z,1017.78
2019-05-14T00:15:24.003Z,1017.75
2019-05-14T00:16:24.325Z,1017.76
2019-05-14T00:17:24.281Z,1017.71
2019-05-14T00:18:23.413Z,1017.76
2019-05-14T00:19:23.582Z,1017.76
2019-05-14T00:20:23.777Z,1017.78
2019-05-14T00:21:23.915Z,1017.84
2019-05-14T00:22:24.087Z,1017.76
2019-05-14T00:23:24.266Z,1017.78
2019-05-14T00:24:24.422Z,1017.74
2019-05-14T00:25:24.594Z,1017.77
2019-05-14T00:26:24.741Z,1017.88
2019-05-14T00:27:24.913Z,1017.83
2019-05-14T00:28:25.699Z,1017.81
2019-05-14T00:29:25.715Z,1017.81
2019-05-14T00:30:25.348Z,1017.79
2019-05-14T00:31:25.718Z,1017.83
2019-05-14T00:32:25.786Z,1017.84
2019-05-14T00:33:25.934Z,1017.84
2019-05-14T00:34:26.091Z,1017.78
2019-05-14T00:35:27.223Z,1017.84
2019-05-14T00:36:26.454Z,1017.81
2019-05-14T00:37:26.658Z,1017.77
2019-05-14T00:38:26.799Z,1017.79
2019-05-14T00:39:26.955Z,1017.76
2019-05-14T00:40:27.718Z,1017.74
2019-05-14T00:41:27.333Z,1017.74
2019-05-14T00:42:27.492Z,1017.75
2019-05-14T00:43:27.650Z,1017.78
2019-05-14T00:44:27.813Z,1017.76
2019-05-14T00:45:27.941Z,1017.76
2019-05-14T00:46:28.090Z,1017.82
2019-05-14T00:47:28.267Z,1017.72
2019-05-14T00:48:28.425Z,1017.79
2019-05-14T00:49:28.546Z,1017.75
2019-05-14T00:50:31.525Z,1017.79
2019-05-14T00:51:28.851Z,1017.79
2019-05-14T00:52:31.363Z,1017.78
2019-05-14T00:53:31.819Z,1017.79
2019-05-14T00:54:29.447Z,1017.86
2019-05-14T00:55:31.539Z,1017.86
2019-05-14T00:56:31.991Z,1017.86
2019-05-14T00:57:31.659Z,1017.86
2019-05-14T00:58:31.018Z,1017.87
2019-05-14T00:59:32.203Z,1017.79
2019-05-14T01:00:52.721Z,1017.86
2019-05-14T01:01:31.822Z,1017.89
2019-05-14T01:02:31.974Z,1017.88
2019-05-14T01:03:32.559Z,1017.83
2019-05-14T01:04:32.162Z,1017.89
2019-05-14T01:05:32.187Z,1017.83
2019-05-14T01:06:32.499Z,1017.79
2019-05-14T01:07:52.735Z,1017.81
2019-05-14T01:08:32.229Z,1017.75
2019-05-14T01:09:32.116Z,1017.83
2019-05-14T01:10:32.270Z,1017.74
2019-05-14T01:11:32.432Z,1017.74
2019-05-14T01:12:32.598Z,1017.77
2019-05-14T01:13:32.773Z,1017.75
2019-05-14T01:14:33.696Z,1017.71
2019-05-14T01:15:33.100Z,1017.72
2019-05-14T01:16:34.227Z,1017.75
2019-05-14T01:17:34.204Z,1017.70
2019-05-14T01:18:33.639Z,1017.69
2019-05-14T01:19:33.837Z,1017.68
2019-05-14T01:20:34.009Z,1017.73
2019-05-14T01:21:34.182Z,1017.71
2019-05-14T01:22:34.357Z,1017.72
2019-05-14T01:23:34.557Z,1017.70
2019-05-14T01:24:34.698Z,1017.66
2019-05-14T01:25:34.857Z,1017.63
2019-05-14T01:26:35.032Z,1017.65
2019-05-14T01:27:35.196Z,1017.67
2019-05-14T01:28:35.347Z,1017.67
2019-05-14T01:29:35.531Z,1017.64
2019-05-14T01:30:35.678Z,1017.66
2019-05-14T01:31:35.817Z,1017.61
2019-05-14T01:32:35.950Z,1017.59
2019-05-14T01:33:36.087Z,1017.64
2019-05-14T01:34:36.721Z,1017.62
2019-05-14T01:35:37.210Z,1017.61
2019-05-14T01:36:36.728Z,1017.62
2019-05-14T01:37:36.887Z,1017.60
2019-05-14T01:38:37.055Z,1017.57
2019-05-14T01:39:37.207Z,1017.61
2019-05-14T01:40:37.373Z,1017.56
2019-05-14T01:41:37.546Z,1017.62
2019-05-14T01:42:37.700Z,1017.55
2019-05-14T01:43:37.854Z,1017.62
2019-05-14T01:44:38.041Z,1017.56
2019-05-14T01:45:38.191Z,1017.59
2019-05-14T01:46:38.725Z,1017.66
2019-05-14T01:47:38.512Z,1017.65
2019-05-14T01:48:38.687Z,1017.66
2019-05-14T01:49:42.500Z,1017.63
2019-05-14T01:50:41.235Z,1017.56
2019-05-14T01:51:39.279Z,1017.58
2019-05-14T01:52:41.618Z,1017.59
2019-05-14T01:53:41.734Z,1017.58
2019-05-14T01:54:42.758Z,1017.63
2019-05-14T01:55:41.465Z,1017.60
2019-05-14T01:56:42.336Z,1017.63
2019-05-14T01:57:42.518Z,1017.61
2019-05-14T01:58:41.831Z,1017.56
2019-05-14T01:59:42.859Z,1017.49
2019-05-14T02:00:41.917Z,1017.52
2019-05-14T02:01:41.597Z,1017.52
2019-05-14T02:02:42.304Z,1017.52
2019-05-14T02:03:41.531Z,1017.53
2019-05-14T02:04:42.689Z,1017.48
2019-05-14T02:05:42.839Z,1017.46
2019-05-14T02:06:42.095Z,1017.58
2019-05-14T02:07:42.282Z,1017.51
2019-05-14T02:08:42.424Z,1017.48
2019-05-14T02:09:42.558Z,1017.53
2019-05-14T02:10:42.679Z,1017.46
2019-05-14T02:11:43.718Z,1017.52
2019-05-14T02:12:43.095Z,1017.43
2019-05-14T02:13:43.233Z,1017.44
2019-05-14T02:14:43.337Z,1017.37
2019-05-14T02:15:44.469Z,1017.36
2019-05-14T02:16:43.691Z,1017.41
2019-05-14T02:17:43.838Z,1017.36
2019-05-14T02:18:43.967Z,1017.38
2019-05-14T02:19:44.204Z,1017.30
2019-05-14T02:20:44.321Z,1017.30
2019-05-14T02:21:44.492Z,1017.35
2019-05-14T02:22:44.731Z,1017.29
2019-05-14T02:23:44.764Z,1017.28
2019-05-14T02:24:44.896Z,1017.33
2019-05-14T02:25:45.044Z,1017.27
2019-05-14T02:26:45.716Z,1017.23
2019-05-14T02:27:45.349Z,1017.20
2019-05-14T02:28:45.542Z,1017.30
2019-05-14T02:29:45.701Z,1017.23
2019-05-14T02:30:55.926Z,1017.25
2019-05-14T02:31:50.401Z,1017.19
2019-05-14T02:32:49.738Z,1017.19
2019-05-14T02:33:50.387Z,1017.11
2019-05-14T02:34:50.012Z,1017.13
2019-05-14T02:35:49.404Z,1017.04
2019-05-14T02:36:49.646Z,1017.03
2019-05-14T02:37:50.497Z,1017.03
2019-05-14T02:38:49.581Z,1017.04
2019-05-14T02:39:50.259Z,1016.99
2019-05-14T02:40:49.592Z,1017.00
2019-05-14T02:41:49.862Z,1017.03
2019-05-14T02:42:49.771Z,1017.00
2019-05-14T02:43:50.325Z,1017.00
2019-05-14T02:44:49.499Z,1016.99
2019-05-14T02:46:03.371Z,1016.97
2019-05-14T02:46:50.678Z,1016.97
2019-05-14T02:47:50.537Z,1017.02
2019-05-14T02:48:49.999Z,1017.04
2019-05-14T02:49:50.208Z,1017.09
2019-05-14T02:50:50.266Z,1017.03
2019-05-14T02:51:50.390Z,1016.99
2019-05-14T02:52:50.573Z,1017.01
2019-05-14T02:54:10.807Z,1017.05
2019-05-14T02:54:51.059Z,1017.08
2019-05-14T02:55:50.202Z,1017.04
2019-05-14T02:56:50.370Z,1017.09
2019-05-14T02:57:50.550Z,1017.11
2019-05-14T02:58:50.684Z,1017.07
2019-05-14T02:59:51.224Z,1017.12
2019-05-14T03:00:50.982Z,1017.07
2019-05-14T03:01:51.146Z,1017.09
2019-05-14T03:02:52.226Z,1017.15
2019-05-14T03:03:51.491Z,1017.16
2019-05-14T03:04:51.691Z,1017.13
2019-05-14T03:05:51.857Z,1017.13
2019-05-14T03:06:52.720Z,1017.12
2019-05-14T03:07:52.221Z,1017.10
2019-05-14T03:08:52.405Z,1017.10
2019-05-14T03:09:52.591Z,1017.10
2019-05-14T03:10:53.723Z,1017.08
2019-05-14T03:11:52.904Z,1017.08
2019-05-14T03:12:53.049Z,1017.09
2019-05-14T03:13:53.200Z,1017.12
2019-05-14T03:14:53.366Z,1017.12
2019-05-14T03:15:53.549Z,1017.07
2019-05-14T03:16:53.693Z,1017.08
2019-05-14T03:17:53.850Z,1017.11
2019-05-14T03:18:54.005Z,1017.14
2019-05-14T03:19:54.176Z,1017.14
2019-05-14T03:20:54.740Z,1017.20
2019-05-14T03:21:54.486Z,1017.14
2019-05-14T03:23:02.978Z,1017.14
2019-05-14T03:24:00.696Z,1017.16
2019-05-14T03:24:54.975Z,1017.14
2019-05-14T03:25:55.180Z,1017.22
2019-05-14T03:26:55.353Z,1017.23
2019-05-14T03:27:55.506Z,1017.26
2019-05-14T03:28:55.657Z,1017.25
2019-05-14T03:29:58.491Z,1017.22
2019-05-14T03:31:01.966Z,1017.25
2019-05-14T03:32:02.103Z,1017.19
2019-05-14T03:33:02.926Z,1017.21
2019-05-14T03:34:02.873Z,1017.21
2019-05-14T03:35:03.946Z,1017.29
2019-05-14T03:36:08.133Z,1017.27
2019-05-14T03:37:03.443Z,1017.25
2019-05-14T03:38:00.400Z,1017.26
2019-05-14T03:38:59.358Z,1017.33
2019-05-14T03:39:59.465Z,1017.33
2019-05-14T03:41:00.184Z,1017.30
2019-05-14T03:41:59.256Z,1017.31
2019-05-14T03:42:59.784Z,1017.33
2019-05-14T03:44:00.163Z,1017.31
2019-05-14T03:44:59.905Z,1017.23
2019-05-14T03:45:59.794Z,1017.25
2019-05-14T03:47:04.688Z,1017.25
2019-05-14T03:48:01.206Z,1017.22
2019-05-14T03:49:00.075Z,1017.22
2019-05-14T03:50:00.495Z,1017.21
2019-05-14T03:51:00.459Z,1017.22
2019-05-14T03:52:00.859Z,1017.19
2019-05-14T03:53:00.162Z,1017.12
2019-05-14T03:54:06.680Z,1017.12
2019-05-14T03:55:04.727Z,1017.16
2019-05-14T03:56:01.679Z,1017.14
2019-05-14T03:57:00.976Z,1017.15
2019-05-14T03:58:01.153Z,1017.13
2019-05-14T03:59:01.393Z,1017.10
2019-05-14T04:00:01.560Z,1017.09
2019-05-14T04:01:01.720Z,1017.10
2019-05-14T04:02:01.854Z,1017.12
2019-05-14T04:03:02.022Z,1017.07
2019-05-14T04:04:02.220Z,1017.07
2019-05-14T04:05:02.379Z,1017.00
2019-05-14T04:06:02.577Z,1017.01
2019-05-14T04:07:02.741Z,1017.00
2019-05-14T04:08:02.902Z,1017.04
2019-05-14T04:09:03.241Z,1017.08
2019-05-14T04:10:03.257Z,1016.99
2019-05-14T04:11:04.232Z,1016.97
2019-05-14T04:12:04.243Z,1016.93
2019-05-14T04:13:03.745Z,1016.86
2019-05-14T04:14:03.932Z,1016.87
2019-05-14T04:15:04.078Z,1016.90
2019-05-14T04:16:04.212Z,1016.88
2019-05-14T04:17:09.747Z,1016.96
2019-05-14T04:18:09.043Z,1017.01
2019-05-14T04:19:04.791Z,1016.96
2019-05-14T04:20:04.975Z,1016.98
2019-05-14T04:21:05.149Z,1017.05
2019-05-14T04:22:05.312Z,1017.04
2019-05-14T04:23:05.480Z,1017.03
2019-05-14T04:24:05.609Z,1017.14
2019-05-14T04:25:05.821Z,1017.12
2019-05-14T04:26:09.147Z,1017.04
2019-05-14T04:27:11.636Z,1017.09
2019-05-14T04:28:09.840Z,1017.11
2019-05-14T04:29:10.163Z,1017.12
2019-05-14T04:30:09.490Z,1017.13
2019-05-14T04:31:09.813Z,1017.10
2019-05-14T04:32:09.476Z,1017.15
2019-05-14T04:33:10.648Z,1017.18
2019-05-14T04:34:10.755Z,1017.10
2019-05-14T04:35:09.593Z,1017.10
2019-05-14T04:36:09.936Z,1017.15
2019-05-14T04:37:09.794Z,1017.14
2019-05-14T04:38:09.703Z,1017.15
2019-05-14T04:39:09.752Z,1017.13
2019-05-14T04:40:10.321Z,1017.11
2019-05-14T04:41:10.558Z,1017.19
2019-05-14T04:42:10.006Z,1017.13
2019-05-14T04:43:10.239Z,1017.12
2019-05-14T04:44:10.161Z,1017.16
2019-05-14T04:45:11.090Z,1017.15
2019-05-14T04:46:10.970Z,1017.08
2019-05-14T04:47:22.897Z,1017.06
2019-05-14T04:48:27.200Z,1017.09
2019-05-14T04:49:12.060Z,1017.09
2019-05-14T04:50:11.057Z,1017.12
2019-05-14T04:51:10.506Z,1017.08
2019-05-14T04:52:11.223Z,1017.11
2019-05-14T04:53:10.846Z,1017.08
2019-05-14T04:54:11.006Z,1017.15
2019-05-14T04:55:11.169Z,1017.15
2019-05-14T04:56:11.350Z,1017.10
2019-05-14T04:57:11.501Z,1017.06
2019-05-14T04:58:11.664Z,1017.07
2019-05-14T04:59:11.815Z,1016.98
2019-05-14T05:00:12.705Z,1016.96
2019-05-14T05:01:13.146Z,1017.00
2019-05-14T05:02:12.303Z,1016.95
2019-05-14T05:03:13.005Z,1016.97
2019-05-14T05:04:13.673Z,1016.94
2019-05-14T05:05:12.788Z,1016.96
2019-05-14T05:06:12.957Z,1016.91
2019-05-14T05:07:13.132Z,1016.82
2019-05-14T05:08:14.370Z,1016.85
2019-05-14T05:09:14.535Z,1016.86
2019-05-14T05:10:13.768Z,1016.91
2019-05-14T05:11:13.932Z,1016.93
2019-05-14T05:12:14.070Z,1016.82
2019-05-14T05:13:14.211Z,1016.85
2019-05-14T05:14:14.352Z,1016.88
2019-05-14T05:15:14.500Z,1016.84
2019-05-14T05:16:14.657Z,1016.84
2019-05-14T05:17:14.796Z,1016.84
2019-05-14T05:18:14.952Z,1016.78
2019-05-14T05:19:15.104Z,1016.83
2019-05-14T05:20:18.986Z,1016.86
2019-05-14T05:21:15.476Z,1016.82
2019-05-14T05:22:15.640Z,1016.85
2019-05-14T05:23:18.837Z,1016.82
2019-05-14T05:24:18.278Z,1016.81
2019-05-14T05:25:16.168Z,1016.80
2019-05-14T05:26:18.418Z,1016.80
2019-05-14T05:27:18.501Z,1016.78
2019-05-14T05:28:19.050Z,1016.78
2019-05-14T05:29:18.584Z,1016.79
2019-05-14T05:30:19.029Z,1016.89
2019-05-14T05:31:18.648Z,1016.78
2019-05-14T05:32:19.498Z,1016.78
2019-05-14T05:33:18.830Z,1016.78
2019-05-14T05:34:19.377Z,1016.73
2019-05-14T05:35:19.011Z,1016.79
2019-05-14T05:36:18.588Z,1016.79
2019-05-14T05:37:19.447Z,1016.78
2019-05-14T05:38:18.619Z,1016.84
2019-05-14T05:39:19.058Z,1016.82
2019-05-14T05:40:19.996Z,1016.81
2019-05-14T05:41:19.440Z,1016.80
2019-05-14T05:42:19.478Z,1016.73
2019-05-14T05:43:19.651Z,1016.77
2019-05-14T05:44:19.766Z,1016.75
2019-05-14T05:45:19.927Z,1016.74
2019-05-14T05:46:20.726Z,1016.79
2019-05-14T05:47:20.335Z,1016.76
2019-05-14T05:48:21.226Z,1016.73
2019-05-14T05:49:20.733Z,1016.75
2019-05-14T05:50:20.906Z,1016.69
2019-05-14T05:51:21.025Z,1016.71
2019-05-14T05:52:21.159Z,1016.71
2019-05-14T05:53:21.287Z,1016.68
2019-05-14T05:54:21.448Z,1016.66
2019-05-14T05:55:21.608Z,1016.53
2019-05-14T05:56:21.765Z,1016.54
2019-05-14T05:57:21.898Z,1016.59
2019-05-14T05:58:22.046Z,1016.49
2019-05-14T05:59:23.730Z,1016.56
2019-05-14T06:00:22.750Z,1016.42
2019-05-14T06:01:38.516Z,1016.39
2019-05-14T06:02:23.633Z,1016.41
2019-05-14T06:03:22.863Z,1016.40
2019-05-14T06:04:22.980Z,1016.31
2019-05-14T06:05:23.227Z,1016.33
2019-05-14T06:06:23.358Z,1016.26
2019-05-14T06:07:24.500Z,1016.31
2019-05-14T06:08:23.741Z,1016.22
2019-05-14T06:09:23.870Z,1016.27
2019-05-14T06:10:24.032Z,1016.28
2019-05-14T06:11:24.188Z,1016.31
2019-05-14T06:12:24.317Z,1016.29
2019-05-14T06:13:24.463Z,1016.32
2019-05-14T06:14:24.605Z,1016.27
2019-05-14T06:15:24.768Z,1016.19
2019-05-14T06:16:24.927Z,1016.15
2019-05-14T06:17:25.235Z,1016.07
2019-05-14T06:18:25.232Z,1016.02
2019-05-14T06:19:25.381Z,1016.01
2019-05-14T06:20:25.535Z,1015.94
2019-05-14T06:21:25.716Z,1015.87
2019-05-14T06:22:27.911Z,1015.63
2019-05-14T06:23:28.347Z,1015.40
2019-05-14T06:24:28.451Z,1015.53
2019-05-14T06:25:26.333Z,1015.46
2019-05-14T06:26:28.776Z,1015.41
2019-05-14T06:27:28.569Z,1015.47
2019-05-14T06:28:32.910Z,1015.53
2019-05-14T06:29:29.158Z,1015.36
2019-05-14T06:30:28.514Z,1015.35
2019-05-14T06:31:29.092Z,1015.38
2019-05-14T06:32:29.074Z,1015.41
2019-05-14T06:33:28.879Z,1015.37
2019-05-14T06:34:29.073Z,1015.28
2019-05-14T06:35:29.060Z,1014.94
2019-05-14T06:36:29.042Z,1015.05
2019-05-14T06:37:30.153Z,1015.19
2019-05-14T06:38:29.666Z,1015.12
2019-05-14T06:39:28.674Z,1014.90
2019-05-14T06:40:28.832Z,1014.80
2019-05-14T06:41:29.017Z,1014.76
2019-05-14T06:42:29.169Z,1014.63
2019-05-14T06:43:29.313Z,1014.65
2019-05-14T06:44:29.645Z,1014.51
2019-05-14T06:45:30.671Z,1014.55
2019-05-14T06:46:30.248Z,1014.50
2019-05-14T06:47:30.736Z,1014.33
2019-05-14T06:48:34.356Z,1014.37
2019-05-14T06:49:31.378Z,1014.32
2019-05-14T06:50:31.248Z,1014.28
2019-05-14T06:51:30.680Z,1014.21
2019-05-14T06:52:31.754Z,1014.16
2019-05-14T06:53:31.033Z,1014.15
2019-05-14T06:54:31.198Z,1014.11
2019-05-14T06:55:31.338Z,1014.12
2019-05-14T06:56:31.505Z,1014.04
2019-05-14T06:57:31.660Z,1014.07
2019-05-14T06:58:31.872Z,1014.05
2019-05-14T06:59:32.049Z,1013.94
2019-05-14T07:00:32.199Z,1013.88
2019-05-14T07:01:32.347Z,1013.93
2019-05-14T07:02:32.541Z,1013.87
2019-05-14T07:03:32.716Z,1013.85
2019-05-14T07:04:33.746Z,1013.78
2019-05-14T07:05:33.000Z,1013.79
2019-05-14T07:06:33.162Z,1013.72
2019-05-14T07:07:33.343Z,1013.66
2019-05-14T07:08:33.538Z,1013.67
2019-05-14T07:09:33.731Z,1013.60
2019-05-14T07:10:33.891Z,1013.52
2019-05-14T07:11:34.091Z,1013.59
2019-05-14T07:12:34.277Z,1013.53
2019-05-14T07:13:34.446Z,1013.53
2019-05-14T07:14:34.635Z,1013.55
2019-05-14T07:15:38.455Z,1013.51
2019-05-14T07:16:35.020Z,1013.46
2019-05-14T07:17:38.463Z,1013.42
2019-05-14T07:18:46.501Z,1013.42
2019-05-14T07:19:38.569Z,1013.41
2019-05-14T07:20:35.703Z,1013.42
2019-05-14T07:21:38.191Z,1013.38
2019-05-14T07:22:36.014Z,1013.33
2019-05-14T07:23:38.511Z,1013.26
2019-05-14T07:24:39.782Z,1013.24
2019-05-14T07:25:39.336Z,1013.22
2019-05-14T07:26:38.853Z,1013.17
2019-05-14T07:27:39.256Z,1013.20
2019-05-14T07:28:42.049Z,1013.14
2019-05-14T07:29:38.718Z,1013.14
2019-05-14T07:30:39.672Z,1013.13
2019-05-14T07:31:39.250Z,1013.14
2019-05-14T07:32:39.481Z,1013.13
2019-05-14T07:33:39.112Z,1013.09
2019-05-14T07:34:38.894Z,1013.09
2019-05-14T07:35:39.289Z,1012.97
2019-05-14T07:36:38.815Z,1013.00
2019-05-14T07:37:39.980Z,1013.02
2019-05-14T07:38:39.783Z,1013.02
2019-05-14T07:39:38.906Z,1013.04
2019-05-14T07:40:39.378Z,1012.97
2019-05-14T07:41:39.315Z,1012.95
2019-05-14T07:42:39.441Z,1012.97
2019-05-14T07:43:39.642Z,1012.93
2019-05-14T07:44:39.818Z,1012.94
2019-05-14T07:45:39.994Z,1012.97
2019-05-14T07:46:40.152Z,1012.89
2019-05-14T07:47:41.254Z,1012.86
2019-05-14T07:48:40.493Z,1012.81
2019-05-14T07:49:40.679Z,1012.89
2019-05-14T07:50:40.873Z,1012.78
2019-05-14T07:51:41.051Z,1012.84
2019-05-14T07:52:45.385Z,1012.87
2019-05-14T07:53:42.663Z,1012.73
2019-05-14T07:54:42.510Z,1012.74
2019-05-14T07:55:41.652Z,1012.78
2019-05-14T07:56:41.839Z,1012.74
2019-05-14T07:57:42.772Z,1012.71
2019-05-14T07:58:42.147Z,1012.66
2019-05-14T07:59:42.310Z,1012.69
2019-05-14T08:00:42.536Z,1012.67
2019-05-14T08:01:42.665Z,1012.69
2019-05-14T08:02:42.805Z,1012.67
2019-05-14T08:03:42.954Z,1012.59
2019-05-14T08:04:43.094Z,1012.58
2019-05-14T08:05:43.289Z,1012.63
2019-05-14T08:06:43.483Z,1012.54
2019-05-14T08:07:43.655Z,1012.53
2019-05-14T08:08:43.838Z,1012.54
2019-05-14T08:09:44.768Z,1012.54
2019-05-14T08:10:44.150Z,1012.49
2019-05-14T08:11:44.314Z,1012.51
2019-05-14T08:12:44.480Z,1012.46
2019-05-14T08:13:44.656Z,1012.46
2019-05-14T08:14:57.683Z,1012.47
2019-05-14T08:15:48.990Z,1012.49
2019-05-14T08:16:45.198Z,1012.45
2019-05-14T08:17:45.398Z,1012.45
2019-05-14T08:18:45.575Z,1012.42
2019-05-14T08:19:45.726Z,1012.40
2019-05-14T08:20:48.683Z,1012.46
2019-05-14T08:21:48.094Z,1012.41
2019-05-14T08:22:48.806Z,1012.45
2019-05-14T08:23:48.135Z,1012.41
2019-05-14T08:24:48.743Z,1012.41
2019-05-14T08:25:48.120Z,1012.37
2019-05-14T08:26:48.709Z,1012.38
2019-05-14T08:27:48.349Z,1012.36
2019-05-14T08:28:49.059Z,1012.30
2019-05-14T08:29:48.840Z,1012.33
2019-05-14T08:30:49.070Z,1012.29
2019-05-14T08:31:48.926Z,1012.22
2019-05-14T08:32:49.078Z,1012.29
2019-05-14T08:33:49.270Z,1012.35
2019-05-14T08:34:48.270Z,1012.20
2019-05-14T08:35:48.872Z,1012.34
2019-05-14T08:36:49.542Z,1012.35
2019-05-14T08:37:49.237Z,1012.35
2019-05-14T08:38:50.342Z,1012.34
2019-05-14T08:39:50.032Z,1012.34
2019-05-14T08:40:49.157Z,1012.32
2019-05-14T08:41:58.538Z,1012.33
2019-05-14T08:42:51.443Z,1012.34
2019-05-14T08:43:49.709Z,1012.29
2019-05-14T08:44:51.400Z,1012.44
2019-05-14T08:45:51.114Z,1012.53
2019-05-14T08:46:50.785Z,1012.39
2019-05-14T08:47:50.417Z,1012.41
2019-05-14T08:48:50.592Z,1012.31
2019-05-14T08:49:51.104Z,1012.57
2019-05-14T08:50:50.995Z,1012.45
2019-05-14T08:51:51.147Z,1012.27
2019-05-14T08:52:51.315Z,1012.54
2019-05-14T08:53:51.471Z,1012.64
2019-05-14T08:55:05.353Z,1012.52
2019-05-14T08:55:54.323Z,1012.56
2019-05-14T08:56:51.907Z,1012.55
2019-05-14T08:57:53.128Z,1012.37
2019-05-14T08:58:52.177Z,1012.41
2019-05-14T08:59:52.368Z,1012.53
2019-05-14T09:00:52.528Z,1012.48
2019-05-14T09:02:01.742Z,1012.35
2019-05-14T09:02:54.924Z,1012.45
2019-05-14T09:03:53.148Z,1012.43
2019-05-14T09:04:54.977Z,1012.50
2019-05-14T09:05:55.282Z,1012.58
2019-05-14T09:06:54.298Z,1012.56
2019-05-14T09:07:53.715Z,1012.52
2019-05-14T09:08:53.850Z,1012.52
2019-05-14T09:09:55.006Z,1012.40
2019-05-14T09:10:54.300Z,1012.42
2019-05-14T09:11:54.312Z,1012.34
2019-05-14T09:12:54.491Z,1012.38
2019-05-14T09:13:54.626Z,1012.35
2019-05-14T09:14:54.785Z,1012.35
2019-05-14T09:15:54.977Z,1012.41
2019-05-14T09:16:55.152Z,1012.25
2019-05-14T09:17:55.296Z,1012.30
2019-05-14T09:18:55.443Z,1012.28
2019-05-14T09:20:05.755Z,1012.30
2019-05-14T09:20:58.319Z,1012.18
2019-05-14T09:21:58.875Z,1012.16
2019-05-14T09:22:59.518Z,1012.05
2019-05-14T09:23:58.763Z,1012.01
2019-05-14T09:24:59.854Z,1012.01
2019-05-14T09:25:58.804Z,1012.06
2019-05-14T09:26:59.023Z,1012.04
2019-05-14T09:27:58.587Z,1012.03
2019-05-14T09:28:58.683Z,1011.91
2019-05-14T09:29:59.090Z,1012.03
2019-05-14T09:30:59.832Z,1011.97
2019-05-14T09:31:59.237Z,1012.01
2019-05-14T09:32:59.459Z,1012.03
2019-05-14T09:33:58.990Z,1012.20
2019-05-14T09:34:58.996Z,1012.16
2019-05-14T09:36:13.584Z,1012.35
2019-05-14T09:37:00.611Z,1012.30
2019-05-14T09:37:59.323Z,1012.44
2019-05-14T09:38:59.915Z,1012.52
2019-05-14T09:39:59.054Z,1012.59
2019-05-14T09:41:10.541Z,1012.56
2019-05-14T09:42:01.383Z,1012.46
2019-05-14T09:43:00.319Z,1012.58
2019-05-14T09:43:59.602Z,1012.65
2019-05-14T09:44:59.788Z,1012.64
2019-05-14T09:45:59.950Z,1012.47
2019-05-14T09:47:00.175Z,1012.63
2019-05-14T09:48:00.340Z,1012.64
2019-05-14T09:49:01.295Z,1012.65
2019-05-14T09:50:15.123Z,1012.46
2019-05-14T09:51:02.845Z,1012.42
2019-05-14T09:52:00.975Z,1012.38
2019-05-14T09:53:01.172Z,1012.43
2019-05-14T09:54:01.430Z,1012.26
2019-05-14T09:55:01.591Z,1012.35
2019-05-14T09:56:01.770Z,1012.30
2019-05-14T09:57:02.798Z,1012.45
2019-05-14T09:58:02.125Z,1012.48
2019-05-14T09:59:02.321Z,1012.52
2019-05-14T10:00:02.382Z,1012.56
2019-05-14T10:01:02.570Z,1012.52
2019-05-14T10:02:02.747Z,1012.50
2019-05-14T10:03:02.895Z,1012.42
2019-05-14T10:04:03.107Z,1012.35
2019-05-14T10:05:03.297Z,1012.36
2019-05-14T10:06:04.327Z,1012.30
2019-05-14T10:07:03.747Z,1012.36
2019-05-14T10:08:03.931Z,1012.28
2019-05-14T10:09:04.064Z,1012.35
2019-05-14T10:10:04.256Z,1012.23
2019-05-14T10:11:04.434Z,1012.32
2019-05-14T10:12:04.819Z,1012.34
2019-05-14T10:13:04.774Z,1012.47
2019-05-14T10:14:07.818Z,1012.54
2019-05-14T10:15:05.117Z,1012.47
2019-05-14T10:16:06.282Z,1012.51
2019-05-14T10:17:05.413Z,1012.55
2019-05-14T10:18:11.061Z,1012.55
2019-05-14T10:19:06.722Z,1012.66
2019-05-14T10:20:08.572Z,1012.72
2019-05-14T10:21:08.372Z,1012.61
2019-05-14T10:22:08.131Z,1012.61
2019-05-14T10:23:06.386Z,1012.63
2019-05-14T10:24:09.118Z,1012.74
2019-05-14T10:25:08.900Z,1012.73
2019-05-14T10:26:09.133Z,1012.72
2019-05-14T10:27:08.903Z,1012.68
2019-05-14T10:28:08.673Z,1012.73
2019-05-14T10:29:08.710Z,1012.74
2019-05-14T10:30:10.323Z,1012.68
2019-05-14T10:31:09.817Z,1012.76
2019-05-14T10:32:09.025Z,1012.72
2019-05-14T10:33:14.125Z,1012.60
2019-05-14T10:34:10.202Z,1012.73
2019-05-14T10:35:08.570Z,1012.83
2019-05-14T10:36:09.496Z,1012.74
2019-05-14T10:37:08.859Z,1012.72
2019-05-14T10:38:09.849Z,1012.66
2019-05-14T10:39:09.499Z,1012.73
2019-05-14T10:40:10.668Z,1012.83
2019-05-14T10:41:10.365Z,1012.80
2019-05-14T10:42:09.521Z,1012.67
2019-05-14T10:43:09.663Z,1012.70
2019-05-14T10:44:09.814Z,1012.65
2019-05-14T10:45:12.722Z,1012.62
2019-05-14T10:46:11.104Z,1012.53
2019-05-14T10:47:10.260Z,1012.53
2019-05-14T10:48:10.432Z,1012.55
2019-05-14T10:49:17.407Z,1012.60
2019-05-14T10:50:13.948Z,1012.60
2019-05-14T10:51:12.100Z,1012.53
2019-05-14T10:52:11.325Z,1012.55
2019-05-14T10:53:11.481Z,1012.50
2019-05-14T10:54:24.305Z,1012.54
2019-05-14T10:55:13.814Z,1012.53
2019-05-14T10:56:11.917Z,1012.59
2019-05-14T10:57:12.082Z,1012.50
2019-05-14T10:58:12.250Z,1012.55
2019-05-14T10:59:12.421Z,1012.54
2019-05-14T11:00:12.588Z,1012.53
2019-05-14T11:01:12.755Z,1012.62
2019-05-14T11:02:13.821Z,1012.59
2019-05-14T11:03:13.845Z,1012.53
2019-05-14T11:04:13.281Z,1012.47
2019-05-14T11:05:13.435Z,1012.47
2019-05-14T11:06:13.623Z,1012.44
2019-05-14T11:07:13.802Z,1012.46
2019-05-14T11:08:14.835Z,1012.51
2019-05-14T11:09:14.101Z,1012.53
2019-05-14T11:10:14.357Z,1012.49
2019-05-14T11:11:14.426Z,1012.44
2019-05-14T11:12:14.576Z,1012.42
2019-05-14T11:13:14.752Z,1012.37
2019-05-14T11:14:14.893Z,1012.36
2019-05-14T11:15:15.054Z,1012.36
2019-05-14T11:16:15.825Z,1012.28
2019-05-14T11:17:15.356Z,1012.23
2019-05-14T11:18:15.541Z,1012.27
2019-05-14T11:19:15.716Z,1012.23
2019-05-14T11:20:15.890Z,1012.22
2019-05-14T11:21:24.837Z,1012.13
2019-05-14T11:22:18.573Z,1012.17
2019-05-14T11:23:18.444Z,1012.11
2019-05-14T11:24:18.885Z,1012.19
2019-05-14T11:25:19.622Z,1012.05
2019-05-14T11:26:18.537Z,1012.16
2019-05-14T11:27:18.766Z,1012.08
2019-05-14T11:28:19.145Z,1012.05
2019-05-14T11:29:39.571Z,1012.10
2019-05-14T11:30:19.332Z,1012.13
2019-05-14T11:31:19.427Z,1012.03
2019-05-14T11:32:19.134Z,1011.96
2019-05-14T11:33:18.921Z,1011.96
2019-05-14T11:34:19.232Z,1012.00
2019-05-14T11:35:19.844Z,1012.01
2019-05-14T11:36:18.996Z,1011.92
2019-05-14T11:37:20.824Z,1011.98
2019-05-14T11:38:32.153Z,1011.92
2019-05-14T11:39:21.848Z,1011.91
2019-05-14T11:40:19.567Z,1011.95
2019-05-14T11:41:19.721Z,1011.98
2019-05-14T11:42:20.092Z,1012.01
2019-05-14T11:43:21.013Z,1012.04
2019-05-14T11:44:20.134Z,1012.16
2019-05-14T11:45:20.288Z,1012.15
2019-05-14T11:46:33.045Z,1012.16
2019-05-14T11:47:22.639Z,1012.10
2019-05-14T11:48:20.904Z,1012.09
2019-05-14T11:49:21.061Z,1012.11
2019-05-14T11:50:21.254Z,1012.10
2019-05-14T11:51:53.095Z,1012.19
2019-05-14T11:52:23.647Z,1012.06
2019-05-14T11:53:21.893Z,1012.10
2019-05-14T11:54:23.144Z,1012.07
2019-05-14T11:55:23.244Z,1012.05
2019-05-14T11:56:22.369Z,1011.99
2019-05-14T11:57:22.564Z,1011.91
2019-05-14T11:58:22.703Z,1011.98
2019-05-14T11:59:22.845Z,1011.90
2019-05-14T12:00:25.895Z,1011.79
2019-05-14T12:01:23.246Z,1011.82
2019-05-14T12:02:23.412Z,1011.75
2019-05-14T12:03:23.568Z,1011.72
2019-05-14T12:04:23.736Z,1011.79
2019-05-14T12:05:23.896Z,1011.75
2019-05-14T12:06:24.057Z,1011.77
2019-05-14T12:07:24.234Z,1011.71